Coalgood, Kentucky
Current Conditions -  °F | °C
As of 3:55 AM on Monday 22 Dec 2014 (Local Time) from KI35 Reporting Station
Overcast Overcast  
Wind Chill: 26°   Ceiling: 4600
Heat Index: 34°   Visibility: 10mi
Dew Point: 32°   Wind: 10mph
Humidity: 93%   Direction: 100°E
Pressure: 30.04"   Gusts: NA
Location:  36.83°N, 83.24°W
Report Text: KI35 220855Z AUTO 10009KT 10SM SCT038 BKN046 OVC050 01/00 A3004 RMK AO1
Loading
Personal Weather Stations






























Interactive Weather Map New forecast layout! Learn more

10-Day Weather Forecast

Advertisements
Track Severe Weather on mobile